Time;durP1;ratioP1;P1;durP2;ratioP2;P2;SDS_P1;SDS_P2;PMS_P1;PMS_P2;Temp;Humidity;BMP_temperature;BMP_pressure;BME280_temperature;BME280_humidity;BME280_pressure;Samples;Min_cycle;Max_cycle;Signal;HPM_P1;HPM_P2
2023/12/14 00:01:14;;;;;;;24.42;12.88;;;9.50;99.90;;;;;;4131070;28;20034;-70
2023/12/14 00:03:15;;;;;;;20.98;12.18;;;9.50;99.90;;;;;;4138643;28;20172;-70
2023/12/14 00:05:15;;;;;;;19.13;11.25;;;9.50;99.90;;;;;;4135609;28;20407;-70
2023/12/14 00:07:16;;;;;;;21.52;11.88;;;9.50;99.90;;;;;;4136554;28;20041;-70
2023/12/14 00:09:16;;;;;;;26.30;13.02;;;9.50;99.90;;;;;;4136059;28;20133;-70
2023/12/14 00:11:17;;;;;;;22.13;13.10;;;9.50;99.90;;;;;;4131938;28;20045;-70
2023/12/14 00:13:18;;;;;;;24.05;13.73;;;9.40;99.90;;;;;;4135472;28;20058;-69
2023/12/14 00:15:18;;;;;;;22.58;12.70;;;9.50;99.90;;;;;;4134073;28;20038;-70
2023/12/14 00:17:19;;;;;;;22.17;12.80;;;9.50;99.90;;;;;;4143707;28;20037;-70
2023/12/14 00:19:19;;;;;;;22.35;13.48;;;9.50;99.90;;;;;;4140687;28;20505;-70
2023/12/14 00:21:20;;;;;;;23.77;12.73;;;9.40;99.90;;;;;;4137522;28;20117;-69
2023/12/14 00:23:21;;;;;;;20.38;11.77;;;9.50;99.90;;;;;;4142442;28;20398;-70
2023/12/14 00:25:21;;;;;;;20.55;11.43;;;9.50;99.90;;;;;;4141821;28;20064;-70
2023/12/14 00:27:22;;;;;;;20.33;11.80;;;9.50;99.90;;;;;;4133655;28;20125;-70
2023/12/14 00:29:22;;;;;;;19.75;11.75;;;9.50;99.90;;;;;;4133543;28;20093;-70
2023/12/14 00:31:23;;;;;;;19.10;11.07;;;9.50;99.90;;;;;;4134092;28;20544;-70
2023/12/14 00:33:23;;;;;;;19.52;11.00;;;9.50;99.90;;;;;;4131824;28;20069;-69
2023/12/14 00:35:24;;;;;;;19.13;11.90;;;9.50;99.90;;;;;;4139966;28;20532;-70
2023/12/14 00:37:25;;;;;;;16.73;9.93;;;9.50;99.90;;;;;;4134507;28;20112;-70
2023/12/14 00:39:25;;;;;;;17.10;10.57;;;9.50;99.90;;;;;;4130408;28;20027;-70
2023/12/14 00:41:26;;;;;;;20.67;11.88;;;9.50;99.90;;;;;;4133295;28;20034;-69
2023/12/14 00:43:27;;;;;;;28.83;16.63;;;9.50;99.90;;;;;;4134046;28;20080;-70
2023/12/14 00:45:27;;;;;;;32.70;19.08;;;9.50;99.90;;;;;;4133246;28;20187;-70
2023/12/14 00:47:28;;;;;;;24.80;15.45;;;9.40;99.90;;;;;;4137648;28;20041;-70
2023/12/14 00:49:28;;;;;;;27.08;15.07;;;9.40;99.90;;;;;;4136709;28;20399;-70
2023/12/14 00:51:29;;;;;;;23.42;13.68;;;9.40;99.90;;;;;;4136746;28;20150;-70
2023/12/14 00:53:29;;;;;;;22.98;13.75;;;9.40;99.90;;;;;;4135600;28;20050;-70
2023/12/14 00:55:30;;;;;;;26.83;15.50;;;9.40;99.90;;;;;;4137205;28;20072;-70
2023/12/14 00:57:31;;;;;;;23.42;14.07;;;9.40;99.90;;;;;;4140595;28;20034;-69
2023/12/14 00:59:31;;;;;;;23.30;13.98;;;9.40;99.90;;;;;;4139992;28;20065;-70
2023/12/14 01:01:32;;;;;;;22.38;13.77;;;9.40;99.90;;;;;;4129607;28;20042;-70
2023/12/14 01:03:32;;;;;;;18.30;12.00;;;9.40;99.90;;;;;;4133023;28;20062;-70
2023/12/14 01:05:33;;;;;;;17.35;11.05;;;9.30;99.90;;;;;;4136460;28;20041;-70
2023/12/14 01:07:33;;;;;;;19.00;11.73;;;9.40;99.90;;;;;;4134570;28;20038;-69
2023/12/14 01:09:34;;;;;;;19.75;12.95;;;9.30;99.90;;;;;;4129566;28;20041;-69
2023/12/14 01:11:35;;;;;;;23.70;12.80;;;9.30;99.90;;;;;;4133770;28;20042;-71
2023/12/14 01:13:35;;;;;;;16.90;10.75;;;9.30;99.90;;;;;;4131968;28;20510;-71
2023/12/14 01:15:36;;;;;;;17.00;10.60;;;9.20;99.90;;;;;;4141694;28;20391;-72
2023/12/14 01:17:37;;;;;;;17.48;11.27;;;9.20;99.90;;;;;;4135672;28;20045;-71
2023/12/14 01:19:41;;;;;;;21.10;12.93;;;9.20;99.90;;;;;;4138451;28;20042;-71
2023/12/14 01:21:41;;;;;;;21.95;14.10;;;9.20;99.90;;;;;;4139908;28;20455;-72
2023/12/14 01:23:42;;;;;;;22.45;13.80;;;9.10;99.90;;;;;;4133688;28;20065;-72
2023/12/14 01:25:42;;;;;;;24.35;14.80;;;9.10;99.90;;;;;;4136850;28;20034;-72
2023/12/14 01:27:43;;;;;;;28.58;16.77;;;9.00;99.90;;;;;;4141804;28;20516;-72
2023/12/14 01:29:43;;;;;;;24.67;15.50;;;9.00;99.90;;;;;;4137207;28;20129;-72
2023/12/14 01:31:44;;;;;;;26.88;16.63;;;8.90;99.90;;;;;;4133782;28;20041;-72
2023/12/14 01:33:47;;;;;;;25.05;14.88;;;8.90;99.90;;;;;;4144147;28;20042;-72
2023/12/14 01:35:48;;;;;;;24.90;14.93;;;8.90;99.90;;;;;;4144180;28;20038;-72
2023/12/14 01:37:48;;;;;;;21.58;14.10;;;8.80;99.90;;;;;;4145210;28;20168;-71
2023/12/14 01:39:49;;;;;;;21.63;13.65;;;8.80;99.90;;;;;;4138456;28;20397;-71
2023/12/14 01:41:50;;;;;;;25.38;15.43;;;8.80;99.90;;;;;;4140588;28;20450;-72
2023/12/14 01:43:50;;;;;;;22.30;14.48;;;8.70;99.90;;;;;;4144604;28;20122;-72
2023/12/14 01:45:51;;;;;;;23.05;14.07;;;8.70;99.90;;;;;;4138641;28;20459;-72
2023/12/14 01:47:51;;;;;;;21.05;14.20;;;8.70;99.90;;;;;;4131723;28;20031;-72
2023/12/14 01:49:52;;;;;;;21.17;12.90;;;8.70;99.90;;;;;;4134123;28;20038;-72
2023/12/14 01:51:52;;;;;;;20.92;13.38;;;8.70;99.90;;;;;;4140920;28;20030;-72
2023/12/14 01:53:53;;;;;;;27.05;17.42;;;8.70;99.90;;;;;;4143126;28;20406;-72
2023/12/14 01:55:54;;;;;;;21.80;14.50;;;8.70;99.90;;;;;;4133775;28;20081;-72
2023/12/14 01:57:54;;;;;;;25.35;14.90;;;8.70;99.90;;;;;;4139398;28;20046;-72
2023/12/14 01:59:55;;;;;;;26.08;15.65;;;8.70;99.90;;;;;;4140603;28;20061;-72
2023/12/14 02:01:57;;;;;;;22.38;14.70;;;8.70;99.90;;;;;;4135576;28;20026;-72
2023/12/14 02:03:57;;;;;;;24.73;15.02;;;8.70;99.90;;;;;;4149103;28;20576;-72
2023/12/14 02:05:58;;;;;;;23.88;15.40;;;8.60;99.90;;;;;;4136300;28;20146;-72
2023/12/14 02:07:59;;;;;;;25.20;16.30;;;8.60;99.90;;;;;;4142932;28;20056;-72
2023/12/14 02:09:59;;;;;;;24.23;15.70;;;8.60;99.90;;;;;;4140608;28;20045;-72
2023/12/14 02:12:00;;;;;;;22.33;14.20;;;8.60;99.90;;;;;;4143033;28;20048;-72
2023/12/14 02:14:05;;;;;;;21.35;14.38;;;8.50;99.90;;;;;;4142539;28;20124;-72
2023/12/14 02:16:06;;;;;;;18.75;12.80;;;8.60;99.90;;;;;;4140595;28;20046;-71
2023/12/14 02:18:06;;;;;;;21.83;13.70;;;8.50;99.90;;;;;;4144025;28;20044;-72
2023/12/14 02:20:07;;;;;;;20.05;13.15;;;8.50;99.90;;;;;;4139768;28;20074;-63
2023/12/14 02:22:08;;;;;;;20.92;14.13;;;8.40;99.90;;;;;;4145036;28;20034;-63
2023/12/14 02:24:08;;;;;;;19.20;12.85;;;8.40;99.90;;;;;;4143208;28;20470;-63
2023/12/14 02:26:09;;;;;;;19.48;11.90;;;8.40;99.90;;;;;;4142270;28;20057;-63
2023/12/14 02:28:09;;;;;;;18.30;12.15;;;8.40;99.90;;;;;;4132534;28;20069;-63
2023/12/14 02:30:12;;;;;;;16.50;11.68;;;8.40;99.90;;;;;;4138756;28;20049;-63
2023/12/14 02:32:12;;;;;;;17.95;12.52;;;8.40;99.90;;;;;;4136812;28;20065;-63
2023/12/14 02:34:13;;;;;;;18.08;11.90;;;8.40;99.90;;;;;;4140213;28;20053;-63
2023/12/14 02:36:13;;;;;;;16.58;10.95;;;8.30;99.90;;;;;;4136516;28;20121;-63
2023/12/14 02:38:14;;;;;;;18.70;11.70;;;8.30;99.90;;;;;;4137301;28;20046;-63
2023/12/14 02:40:14;;;;;;;15.05;10.90;;;8.30;99.90;;;;;;4136296;28;20498;-63
2023/12/14 02:42:15;;;;;;;16.98;11.63;;;8.30;99.90;;;;;;4137701;28;20486;-63
2023/12/14 02:44:16;;;;;;;15.95;11.23;;;8.30;99.90;;;;;;4142825;28;20041;-63
2023/12/14 02:46:18;;;;;;;19.10;13.05;;;8.30;99.90;;;;;;4136782;28;20049;-63
2023/12/14 02:48:18;;;;;;;19.05;12.70;;;8.30;99.90;;;;;;4141765;28;20038;-63
2023/12/14 02:50:19;;;;;;;20.20;13.55;;;8.30;99.90;;;;;;4139712;28;20572;-63
2023/12/14 02:52:20;;;;;;;24.33;15.30;;;8.30;99.90;;;;;;4140485;28;20058;-63
2023/12/14 02:54:20;;;;;;;23.88;15.40;;;8.30;99.90;;;;;;4140628;28;20083;-63
2023/12/14 02:56:21;;;;;;;21.08;14.30;;;8.30;99.90;;;;;;4141178;28;20710;-63
2023/12/14 02:58:21;;;;;;;21.83;13.90;;;8.30;99.90;;;;;;4134716;28;20418;-63
2023/12/14 03:00:22;;;;;;;26.08;16.23;;;8.20;99.90;;;;;;4140508;28;20042;-63
2023/12/14 03:02:23;;;;;;;22.88;15.88;;;8.30;99.90;;;;;;4144086;28;20096;-63
2023/12/14 03:04:23;;;;;;;26.05;16.13;;;8.20;99.90;;;;;;4155860;28;20554;-63
2023/12/14 03:06:24;;;;;;;25.65;17.00;;;8.30;99.90;;;;;;4141582;28;20030;-64
2023/12/14 03:08:24;;;;;;;24.10;16.13;;;8.20;99.90;;;;;;4137589;28;20088;-63
2023/12/14 03:10:25;;;;;;;24.23;15.98;;;8.20;99.90;;;;;;4141228;28;20379;-63
2023/12/14 03:12:25;;;;;;;25.17;16.40;;;8.20;99.90;;;;;;4137819;28;20130;-63
2023/12/14 03:14:31;;;;;;;22.73;15.93;;;8.30;99.90;;;;;;4136756;28;20049;-63
2023/12/14 03:16:31;;;;;;;35.72;21.90;;;8.30;99.90;;;;;;4136173;28;20069;-63
2023/12/14 03:18:32;;;;;;;40.47;24.13;;;8.20;99.90;;;;;;4138271;28;20037;-63
2023/12/14 03:20:33;;;;;;;34.92;20.35;;;8.20;99.90;;;;;;4139740;28;20048;-63
2023/12/14 03:22:33;;;;;;;34.20;21.08;;;8.20;99.90;;;;;;4137577;28;20030;-63
2023/12/14 03:24:35;;;;;;;43.70;26.30;;;8.10;99.90;;;;;;4137390;28;20034;-63
2023/12/14 03:26:36;;;;;;;34.30;22.17;;;8.10;99.90;;;;;;4138794;28;20040;-63
2023/12/14 03:28:37;;;;;;;32.20;20.92;;;8.10;99.90;;;;;;4137366;28;20113;-77
2023/12/14 03:30:37;;;;;;;30.58;20.15;;;8.10;99.90;;;;;;4134522;28;20046;-69
2023/12/14 03:32:38;;;;;;;35.88;21.83;;;8.10;99.90;;;;;;4135871;28;20053;-68
2023/12/14 03:34:38;;;;;;;30.60;19.50;;;8.00;99.90;;;;;;4158959;28;20029;-69
2023/12/14 03:36:39;;;;;;;35.33;22.05;;;8.10;99.90;;;;;;4137204;28;20034;-69
2023/12/14 03:38:40;;;;;;;35.40;21.48;;;8.00;99.90;;;;;;4136155;28;20445;-69
2023/12/14 03:40:40;;;;;;;31.85;20.15;;;8.00;99.90;;;;;;4141002;28;20046;-69
2023/12/14 03:42:41;;;;;;;32.10;19.92;;;8.00;99.90;;;;;;4143622;28;20038;-70
2023/12/14 03:44:41;;;;;;;34.95;21.85;;;8.00;99.90;;;;;;4135617;28;20390;-70
2023/12/14 03:46:42;;;;;;;31.50;20.85;;;8.00;99.90;;;;;;4140393;28;20026;-69
2023/12/14 03:48:43;;;;;;;33.00;19.95;;;8.00;99.90;;;;;;4143011;28;20042;-69
2023/12/14 03:50:43;;;;;;;33.22;20.00;;;8.00;99.90;;;;;;4142865;28;20038;-69
2023/12/14 03:52:44;;;;;;;31.80;19.73;;;8.00;99.90;;;;;;4156061;28;20054;-69
2023/12/14 03:54:45;;;;;;;28.88;18.73;;;8.00;99.90;;;;;;4136772;28;20422;-69
2023/12/14 03:56:45;;;;;;;30.70;19.00;;;8.00;99.90;;;;;;4136348;28;20077;-69
2023/12/14 03:58:46;;;;;;;29.45;18.08;;;8.00;99.90;;;;;;4135775;28;20049;-69
2023/12/14 04:00:47;;;;;;;30.52;19.10;;;8.00;99.90;;;;;;4137892;28;20041;-69
2023/12/14 04:02:47;;;;;;;28.35;17.17;;;8.00;99.90;;;;;;4140144;28;20046;-69
2023/12/14 04:04:48;;;;;;;39.92;21.45;;;7.90;99.90;;;;;;4127191;28;20034;-69
2023/12/14 04:06:49;;;;;;;37.20;21.90;;;7.90;99.90;;;;;;4134976;28;20030;-69
2023/12/14 04:08:49;;;;;;;36.40;21.73;;;7.90;99.90;;;;;;4133247;28;20108;-70
2023/12/14 04:10:50;;;;;;;32.28;19.20;;;7.90;99.90;;;;;;4134971;28;20092;-70
2023/12/14 04:12:50;;;;;;;34.13;20.30;;;7.80;99.90;;;;;;4140474;28;20505;-69
2023/12/14 04:14:51;;;;;;;31.65;18.50;;;7.80;99.90;;;;;;4141248;28;20033;-69
2023/12/14 04:16:51;;;;;;;31.08;18.48;;;7.80;99.90;;;;;;4136338;28;20026;-69
2023/12/14 04:18:52;;;;;;;31.20;18.27;;;7.80;99.90;;;;;;4132851;28;20042;-68
2023/12/14 04:20:53;;;;;;;28.88;17.27;;;7.80;99.90;;;;;;4139815;28;20065;-68
2023/12/14 04:22:53;;;;;;;27.17;16.80;;;7.80;99.90;;;;;;4135919;28;20030;-69
2023/12/14 04:24:54;;;;;;;25.73;17.35;;;7.80;99.90;;;;;;4135434;28;20046;-70
2023/12/14 04:26:55;;;;;;;32.22;18.33;;;7.80;99.90;;;;;;4138673;28;20061;-69
2023/12/14 04:28:56;;;;;;;26.45;16.88;;;7.80;99.90;;;;;;4136398;28;20505;-69
2023/12/14 04:30:56;;;;;;;29.00;17.98;;;7.80;99.90;;;;;;4134976;28;20041;-69
2023/12/14 04:32:57;;;;;;;32.13;19.15;;;7.90;99.90;;;;;;4134429;28;20100;-69
2023/12/14 04:34:57;;;;;;;28.25;17.10;;;7.80;99.90;;;;;;4135313;28;20044;-69
2023/12/14 04:36:58;;;;;;;31.73;19.20;;;7.80;99.90;;;;;;4139411;28;20030;-69
2023/12/14 04:38:58;;;;;;;30.25;19.02;;;7.80;99.90;;;;;;4137082;28;20048;-69
2023/12/14 04:40:59;;;;;;;31.02;18.20;;;7.80;99.90;;;;;;4137681;28;20423;-69
2023/12/14 04:42:59;;;;;;;30.63;18.10;;;7.80;99.90;;;;;;4130963;28;20096;-69
2023/12/14 04:45:00;;;;;;;27.08;17.20;;;7.80;99.90;;;;;;4131836;28;20033;-69
2023/12/14 04:47:01;;;;;;;30.60;17.23;;;7.80;99.90;;;;;;4140055;28;20038;-69
2023/12/14 04:49:01;;;;;;;27.25;16.13;;;7.80;99.90;;;;;;4132015;28;20125;-69
2023/12/14 04:51:02;;;;;;;26.10;15.65;;;7.80;99.90;;;;;;4137912;28;20497;-69
2023/12/14 04:53:03;;;;;;;29.90;18.75;;;7.80;99.90;;;;;;4131421;28;20052;-69
2023/12/14 04:55:04;;;;;;;25.90;17.40;;;7.80;99.90;;;;;;4132324;28;20039;-70
2023/12/14 04:57:04;;;;;;;30.42;18.15;;;7.80;99.90;;;;;;4138338;28;20093;-69
2023/12/14 04:59:05;;;;;;;25.27;16.05;;;7.70;99.90;;;;;;4134679;28;20463;-69
2023/12/14 05:01:06;;;;;;;23.45;16.20;;;7.70;99.90;;;;;;4136514;28;20056;-69
2023/12/14 05:03:07;;;;;;;23.23;15.65;;;7.80;99.90;;;;;;4142169;28;20168;-69
2023/12/14 05:05:08;;;;;;;27.60;17.00;;;7.80;99.90;;;;;;4141648;28;20371;-69
2023/12/14 05:07:08;;;;;;;26.85;16.63;;;7.80;99.90;;;;;;4134114;28;20494;-70
2023/12/14 05:09:11;;;;;;;25.33;16.80;;;7.80;99.90;;;;;;4155289;28;21327;-70
2023/12/14 05:11:12;;;;;;;;;;;7.80;99.90;;;;;;4139530;28;20042;-69
2023/12/14 05:13:13;;;;;;;22.83;15.15;;;7.80;99.90;;;;;;4137848;28;20000;-69
2023/12/14 05:15:13;;;;;;;26.40;16.80;;;7.80;99.90;;;;;;4131809;28;20479;-69
2023/12/14 05:17:14;;;;;;;22.98;14.77;;;7.80;99.90;;;;;;4140683;28;20078;-69
2023/12/14 05:19:14;;;;;;;22.33;14.50;;;7.80;99.90;;;;;;4138694;28;20061;-69
2023/12/14 05:21:18;;;;;;;21.92;14.57;;;7.80;99.90;;;;;;4138087;28;20046;-69
2023/12/14 05:23:19;;;;;;;23.63;14.93;;;7.80;99.90;;;;;;4134436;28;20113;-69
2023/12/14 05:25:20;;;;;;;24.17;14.52;;;7.80;99.90;;;;;;4135527;28;20042;-70
2023/12/14 05:27:20;;;;;;;20.95;14.02;;;7.80;99.90;;;;;;4136575;28;20053;-69
2023/12/14 05:29:21;;;;;;;20.70;13.40;;;7.80;99.90;;;;;;4133953;28;20097;-69
2023/12/14 05:31:22;;;;;;;23.67;15.07;;;7.90;99.90;;;;;;4137768;28;20041;-69
2023/12/14 05:33:22;;;;;;;24.08;15.27;;;7.80;99.90;;;;;;4135040;28;20466;-69
2023/12/14 05:35:23;;;;;;;21.95;14.35;;;7.80;99.90;;;;;;4129913;28;20168;-69
2023/12/14 05:37:23;;;;;;;24.40;14.43;;;7.80;99.90;;;;;;4131630;28;20042;-69
2023/12/14 05:39:24;;;;;;;22.17;15.07;;;7.80;99.90;;;;;;4132474;28;20046;-69
2023/12/14 05:41:25;;;;;;;20.55;13.50;;;7.80;99.90;;;;;;4131323;28;20041;-69
2023/12/14 05:43:26;;;;;;;20.52;13.85;;;7.80;99.90;;;;;;4138798;28;20497;-69
2023/12/14 05:45:26;;;;;;;22.85;14.88;;;7.80;99.90;;;;;;4132432;28;20043;-69
2023/12/14 05:47:27;;;;;;;23.58;15.15;;;7.80;99.90;;;;;;4138769;28;20041;-69
2023/12/14 05:49:28;;;;;;;27.45;17.27;;;7.80;99.90;;;;;;4135615;28;20120;-69
2023/12/14 05:51:29;;;;;;;25.70;16.65;;;7.80;99.90;;;;;;4133468;28;20044;-69
2023/12/14 05:53:30;;;;;;;29.75;17.60;;;7.80;99.90;;;;;;4129502;28;20081;-69
2023/12/14 05:55:30;;;;;;;27.90;17.05;;;7.80;99.90;;;;;;4138303;28;20046;-69
2023/12/14 05:57:31;;;;;;;25.60;16.55;;;7.80;99.90;;;;;;4133302;28;20037;-69
2023/12/14 05:59:32;;;;;;;30.75;18.27;;;7.70;99.90;;;;;;4137754;28;20037;-69
2023/12/14 06:01:32;;;;;;;27.08;16.95;;;7.70;99.90;;;;;;4132289;28;20267;-69
2023/12/14 06:03:33;;;;;;;31.60;19.55;;;7.70;99.90;;;;;;4139915;28;20061;-69
2023/12/14 06:05:33;;;;;;;30.35;17.40;;;7.70;99.90;;;;;;4143957;28;20229;-69
2023/12/14 06:07:34;;;;;;;26.40;17.52;;;7.70;99.90;;;;;;4145137;28;20573;-69
2023/12/14 06:09:35;;;;;;;28.42;17.73;;;7.70;99.90;;;;;;4142365;28;20050;-69
2023/12/14 06:11:36;;;;;;;26.52;17.20;;;7.60;99.90;;;;;;4143626;28;20062;-69
2023/12/14 06:13:37;;;;;;;29.38;19.13;;;7.70;99.90;;;;;;4128545;28;20050;-69
2023/12/14 06:15:38;;;;;;;27.02;17.80;;;7.60;99.90;;;;;;4138626;28;20501;-69
2023/12/14 06:17:40;;;;;;;32.33;19.33;;;7.60;99.90;;;;;;4137627;28;20125;-69
2023/12/14 06:19:41;;;;;;;33.42;20.23;;;7.60;99.90;;;;;;4138122;28;20060;-69
2023/12/14 06:21:41;;;;;;;29.70;19.00;;;7.60;99.90;;;;;;4136373;28;20479;-69
2023/12/14 06:23:42;;;;;;;30.48;18.77;;;7.60;99.90;;;;;;4137851;28;20057;-69
2023/12/14 06:25:43;;;;;;;37.40;22.52;;;7.60;99.90;;;;;;4135371;28;20411;-66
2023/12/14 06:27:44;;;;;;;33.63;21.30;;;7.50;99.90;;;;;;4137986;28;20042;-68
2023/12/14 06:29:45;;;;;;;44.00;24.90;;;7.60;99.90;;;;;;4139039;28;20433;-67
2023/12/14 06:31:46;;;;;;;43.17;25.20;;;7.50;99.90;;;;;;4141301;28;20053;-67
2023/12/14 06:33:48;;;;;;;38.42;23.30;;;7.50;99.90;;;;;;4141203;28;20046;-67
2023/12/14 06:35:49;;;;;;;38.28;23.58;;;7.50;99.90;;;;;;4131412;28;20157;-67
2023/12/14 06:37:50;;;;;;;39.17;23.23;;;7.40;99.90;;;;;;4140451;28;20034;-67
2023/12/14 06:39:50;;;;;;;38.53;23.08;;;7.50;99.90;;;;;;4139435;28;20390;-67
2023/12/14 06:41:54;;;;;;;36.35;22.30;;;7.50;99.90;;;;;;4133121;28;20030;-67
2023/12/14 06:43:55;;;;;;;33.95;21.13;;;7.50;99.90;;;;;;4138274;28;20075;-67
2023/12/14 06:45:56;;;;;;;33.88;21.33;;;7.50;99.90;;;;;;4137550;28;20117;-67
2023/12/14 06:47:56;;;;;;;33.53;20.65;;;7.40;99.90;;;;;;4132928;28;20073;-67
2023/12/14 06:49:57;;;;;;;32.95;21.02;;;7.40;99.90;;;;;;4128179;28;20046;-67
2023/12/14 06:51:57;;;;;;;34.85;19.90;;;7.40;99.90;;;;;;4125959;28;20045;-66
2023/12/14 06:53:58;;;;;;;31.65;21.10;;;7.50;99.90;;;;;;4130006;28;20051;-66
2023/12/14 06:55:59;;;;;;;30.50;19.27;;;7.50;99.90;;;;;;4135849;28;20117;-66
2023/12/14 06:57:59;;;;;;;32.40;19.42;;;7.50;99.90;;;;;;4132440;28;20038;-66
2023/12/14 07:00:00;;;;;;;31.55;19.80;;;7.40;99.90;;;;;;4131586;28;20038;-76
2023/12/14 07:02:00;;;;;;;27.67;17.45;;;7.40;99.90;;;;;;4134893;28;20131;-75
2023/12/14 07:04:03;;;;;;;26.33;17.58;;;7.50;99.90;;;;;;4128751;28;20048;-75
2023/12/14 07:06:04;;;;;;;31.67;19.30;;;7.50;99.90;;;;;;4129336;28;20083;-76
2023/12/14 07:08:04;;;;;;;28.25;18.15;;;7.50;99.90;;;;;;4134635;28;20512;-76
2023/12/14 07:10:05;;;;;;;31.25;18.75;;;7.50;99.90;;;;;;4132119;28;20054;-75
2023/12/14 07:12:07;;;;;;;29.50;19.10;;;7.50;99.90;;;;;;4133294;28;20401;-75
2023/12/14 07:14:08;;;;;;;29.90;18.73;;;7.50;99.90;;;;;;4128308;28;20069;-75
2023/12/14 07:16:12;;;;;;;30.08;19.58;;;7.50;99.90;;;;;;4135098;28;20061;-75
2023/12/14 07:18:12;;;;;;;32.58;20.20;;;7.50;99.90;;;;;;4127933;28;20033;-75
2023/12/14 07:20:13;;;;;;;38.30;22.75;;;7.40;99.90;;;;;;4128511;28;20600;-75
2023/12/14 07:22:14;;;;;;;32.53;20.85;;;7.40;99.90;;;;;;4134808;28;20057;-74
2023/12/14 07:24:14;;;;;;;31.75;19.02;;;7.40;99.90;;;;;;4134127;28;20050;-74
2023/12/14 07:26:15;;;;;;;34.22;21.35;;;7.40;99.90;;;;;;4130053;28;20074;-74
2023/12/14 07:28:15;;;;;;;34.85;20.98;;;7.40;99.90;;;;;;4134461;28;20044;-75
2023/12/14 07:30:16;;;;;;;33.85;21.50;;;7.40;99.90;;;;;;4129350;28;20340;-74
2023/12/14 07:32:17;;;;;;;32.55;20.75;;;7.40;99.90;;;;;;4132329;28;20537;-74
2023/12/14 07:34:20;;;;;;;34.97;21.50;;;7.40;99.90;;;;;;4131675;28;20078;-75
2023/12/14 07:36:22;;;;;;;35.45;21.40;;;7.40;99.90;;;;;;4133200;28;20096;-75
2023/12/14 07:38:22;;;;;;;36.58;22.60;;;7.40;99.90;;;;;;4132445;28;20046;-74
2023/12/14 07:40:23;;;;;;;36.65;22.10;;;7.40;99.90;;;;;;4130260;28;20073;-75
2023/12/14 07:42:24;;;;;;;34.97;22.05;;;7.40;99.90;;;;;;4132393;28;20483;-75
2023/12/14 07:44:25;;;;;;;30.88;20.02;;;7.40;99.90;;;;;;4132957;28;20049;-74
2023/12/14 07:46:25;;;;;;;29.48;19.98;;;7.40;99.90;;;;;;4130071;28;20438;-75
2023/12/14 07:48:28;;;;;;;30.05;19.83;;;7.40;99.90;;;;;;4130636;28;20038;-76
2023/12/14 07:50:29;;;;;;;31.98;19.85;;;7.40;99.90;;;;;;4118350;28;20521;-75
2023/12/14 07:52:29;;;;;;;31.58;19.33;;;7.40;99.90;;;;;;4129808;28;20058;-75
2023/12/14 07:54:30;;;;;;;32.83;19.52;;;7.40;99.90;;;;;;4134409;28;20052;-75
2023/12/14 07:56:32;;;;;;;28.35;18.48;;;7.40;99.90;;;;;;4131264;28;20033;-75
2023/12/14 07:58:33;;;;;;;28.63;18.58;;;7.50;99.90;;;;;;4131535;28;20030;-74
2023/12/14 08:00:33;;;;;;;29.45;18.30;;;7.50;99.90;;;;;;4131904;28;20044;-74
2023/12/14 08:02:34;;;;;;;29.48;18.35;;;7.50;99.90;;;;;;4132101;28;20038;-75
2023/12/14 08:04:35;;;;;;;29.70;18.73;;;7.50;99.90;;;;;;4115824;28;20655;-76
2023/12/14 08:06:35;;;;;;;26.45;17.00;;;7.50;99.90;;;;;;4108763;28;20042;-77
2023/12/14 08:08:37;;;;;;;25.83;17.77;;;7.50;99.90;;;;;;4107726;28;20080;-63
2023/12/14 08:10:41;;;;;;;27.00;18.35;;;7.50;99.90;;;;;;4118609;28;20068;-69
2023/12/14 08:12:42;;;;;;;25.70;17.50;;;7.40;99.90;;;;;;4130414;28;20034;-69
2023/12/14 08:14:43;;;;;;;28.65;17.60;;;7.50;99.90;;;;;;4139261;28;20049;-69
2023/12/14 08:16:44;;;;;;;23.55;16.27;;;7.50;99.90;;;;;;4128998;28;20423;-69
2023/12/14 08:18:48;;;;;;;21.80;14.75;;;7.40;99.90;;;;;;4136575;28;20042;-70
2023/12/14 08:20:48;;;;;;;21.55;14.98;;;7.40;99.90;;;;;;4137756;28;20526;-70
2023/12/14 08:22:49;;;;;;;22.92;15.60;;;7.50;99.90;;;;;;4129647;28;20092;-70
2023/12/14 08:24:50;;;;;;;24.38;16.40;;;7.50;99.90;;;;;;4136612;28;20026;-69
2023/12/14 08:26:51;;;;;;;22.55;15.43;;;7.50;99.90;;;;;;4136062;28;20049;-70
2023/12/14 08:28:51;;;;;;;24.77;16.88;;;7.40;99.90;;;;;;4136872;28;20038;-69
2023/12/14 08:30:52;;;;;;;27.60;16.30;;;7.50;99.90;;;;;;4136455;28;20038;-69
2023/12/14 08:32:53;;;;;;;25.75;16.88;;;7.50;99.90;;;;;;4135427;28;20049;-69
2023/12/14 08:34:54;;;;;;;23.85;15.80;;;7.50;99.90;;;;;;4130778;28;20488;-70
2023/12/14 08:36:54;;;;;;;24.17;15.52;;;7.50;99.90;;;;;;4130572;28;20133;-70
2023/12/14 08:38:55;;;;;;;21.58;14.65;;;7.40;99.90;;;;;;4129629;28;20609;-70
2023/12/14 08:40:55;;;;;;;23.02;15.32;;;7.50;99.90;;;;;;4133556;28;20121;-70
2023/12/14 08:42:57;;;;;;;23.50;15.88;;;7.50;99.90;;;;;;4126664;28;20060;-70
2023/12/14 08:44:57;;;;;;;23.73;16.08;;;7.50;99.90;;;;;;4130872;28;20041;-70
2023/12/14 08:46:58;;;;;;;21.63;14.88;;;7.50;99.90;;;;;;4132069;28;20560;-69
2023/12/14 08:48:59;;;;;;;21.88;14.52;;;7.50;99.90;;;;;;4132791;28;20080;-70
2023/12/14 08:50:59;;;;;;;22.35;14.35;;;7.50;99.90;;;;;;4133514;28;20038;-69
2023/12/14 08:53:00;;;;;;;19.98;13.70;;;7.50;99.90;;;;;;4136148;28;20054;-69
2023/12/14 08:55:02;;;;;;;21.08;15.02;;;7.50;99.90;;;;;;4133162;28;20033;-70
2023/12/14 08:57:02;;;;;;;19.15;14.00;;;7.50;99.90;;;;;;4136762;28;20454;-69
2023/12/14 08:59:03;;;;;;;26.08;16.70;;;7.50;99.90;;;;;;4134688;28;20042;-69
2023/12/14 09:01:04;;;;;;;24.13;16.58;;;7.50;99.90;;;;;;4135060;28;20041;-69
2023/12/14 09:03:05;;;;;;;20.90;14.55;;;7.40;99.90;;;;;;4137907;28;20056;-69
2023/12/14 09:05:06;;;;;;;20.38;14.35;;;7.40;99.90;;;;;;4129652;28;20064;-69
2023/12/14 09:07:06;;;;;;;18.20;12.88;;;7.40;99.90;;;;;;4128730;28;20038;-69
2023/12/14 09:09:07;;;;;;;16.02;12.00;;;7.40;99.90;;;;;;4135748;28;20054;-69
2023/12/14 09:11:08;;;;;;;18.65;13.00;;;7.40;99.90;;;;;;4133964;28;20045;-69
2023/12/14 09:13:09;;;;;;;17.85;12.77;;;7.40;99.90;;;;;;4129527;28;20560;-69
2023/12/14 09:15:09;;;;;;;18.25;12.48;;;7.40;99.90;;;;;;4130020;28;20046;-70
2023/12/14 09:17:10;;;;;;;17.05;11.95;;;7.40;99.90;;;;;;4132688;28;20083;-69
2023/12/14 09:19:11;;;;;;;17.65;12.48;;;7.40;99.90;;;;;;4130652;28;20476;-68
2023/12/14 09:21:11;;;;;;;17.75;12.50;;;7.40;99.90;;;;;;4136907;28;20121;-69
2023/12/14 09:23:12;;;;;;;15.90;11.20;;;7.40;99.90;;;;;;4129703;28;20124;-69
2023/12/14 09:25:12;;;;;;;14.43;10.82;;;7.40;99.90;;;;;;4126268;28;20049;-69
2023/12/14 09:27:13;;;;;;;14.18;10.48;;;7.40;99.90;;;;;;4145947;28;20549;-69
2023/12/14 09:29:15;;;;;;;13.75;10.05;;;7.40;99.90;;;;;;4136551;28;20482;-69
2023/12/14 09:31:16;;;;;;;14.50;10.63;;;7.50;99.90;;;;;;4135697;28;20041;-70
2023/12/14 09:33:16;;;;;;;13.70;10.23;;;7.50;99.90;;;;;;4136158;28;20095;-69
2023/12/14 09:35:18;;;;;;;16.70;11.55;;;7.50;99.90;;;;;;4137242;28;20125;-69
2023/12/14 09:37:19;;;;;;;17.10;11.93;;;7.50;99.90;;;;;;4128249;28;20125;-69
2023/12/14 09:39:21;;;;;;;12.52;9.93;;;7.50;99.90;;;;;;4131673;28;20046;-70
2023/12/14 09:41:22;;;;;;;16.60;11.10;;;7.50;99.90;;;;;;4133344;28;20034;-69
2023/12/14 09:43:23;;;;;;;16.63;11.10;;;7.50;99.90;;;;;;4140340;28;20072;-69
2023/12/14 09:45:28;;;;;;;15.07;11.20;;;7.50;99.90;;;;;;4137897;28;20042;-69
2023/12/14 09:47:29;;;;;;;14.82;10.88;;;7.60;99.90;;;;;;4136771;28;20061;-70
2023/12/14 09:49:30;;;;;;;18.00;12.50;;;7.60;99.90;;;;;;4140526;28;20042;-69
2023/12/14 09:51:31;;;;;;;16.15;12.23;;;7.50;99.90;;;;;;4139367;28;20430;-69
2023/12/14 09:53:31;;;;;;;21.00;13.25;;;7.60;99.90;;;;;;4139004;28;20060;-69
2023/12/14 09:55:32;;;;;;;16.05;12.27;;;7.50;99.90;;;;;;4139073;28;20399;-70
2023/12/14 09:57:32;;;;;;;16.70;11.13;;;7.50;99.90;;;;;;4140252;28;20066;-69
2023/12/14 09:59:33;;;;;;;16.23;11.77;;;7.50;99.90;;;;;;4130205;28;20042;-69
2023/12/14 10:01:34;;;;;;;16.95;11.63;;;7.50;99.90;;;;;;4133892;28;20053;-69
2023/12/14 10:03:38;;;;;;;15.48;11.50;;;7.50;99.90;;;;;;4134893;28;20060;-69
2023/12/14 10:05:40;;;;;;;17.13;12.35;;;7.50;99.90;;;;;;4134669;28;20037;-69
2023/12/14 10:07:44;;;;;;;16.60;11.87;;;7.50;99.90;;;;;;4138937;28;20037;-69
2023/12/14 10:09:44;;;;;;;14.25;11.07;;;7.50;99.90;;;;;;4142995;28;20265;-69
2023/12/14 10:11:45;;;;;;;13.32;10.27;;;7.50;99.90;;;;;;4141392;28;20034;-69
2023/12/14 10:13:46;;;;;;;14.65;11.00;;;7.40;99.90;;;;;;4139517;28;20046;-70
2023/12/14 10:15:48;;;;;;;14.90;11.05;;;7.40;99.90;;;;;;4135771;28;20433;-69
2023/12/14 10:17:54;;;;;;;15.73;10.23;;;7.40;99.90;;;;;;4138742;28;20030;-69
2023/12/14 10:19:55;;;;;;;17.42;11.35;;;7.40;99.90;;;;;;4137231;28;20038;-69
2023/12/14 10:21:55;;;;;;;15.30;10.88;;;7.30;99.90;;;;;;4139324;28;20038;-69